sensor_id;sensor_type;location;lat;lon;timestamp;P1;durP1;ratioP1;P2;durP2;ratioP2
73980;SDS011;62348;51.412;5.436;2023-04-09T00:02:08;65.57;;;41.75;;
73980;SDS011;62348;51.412;5.436;2023-04-09T00:04:34;66.93;;;43.03;;
73980;SDS011;62348;51.412;5.436;2023-04-09T00:06:59;64.97;;;41.58;;
73980;SDS011;62348;51.412;5.436;2023-04-09T00:09:25;68.80;;;42.97;;
73980;SDS011;62348;51.412;5.436;2023-04-09T00:11:50;71.28;;;44.45;;
73980;SDS011;62348;51.412;5.436;2023-04-09T00:14:16;70.55;;;44.53;;
73980;SDS011;62348;51.412;5.436;2023-04-09T00:16:41;70.07;;;43.53;;
73980;SDS011;62348;51.412;5.436;2023-04-09T00:19:06;69.10;;;43.28;;
73980;SDS011;62348;51.412;5.436;2023-04-09T00:21:32;71.97;;;44.17;;
73980;SDS011;62348;51.412;5.436;2023-04-09T00:23:57;71.68;;;44.35;;
73980;SDS011;62348;51.412;5.436;2023-04-09T00:26:23;72.13;;;43.63;;
73980;SDS011;62348;51.412;5.436;2023-04-09T00:28:48;69.28;;;43.92;;
73980;SDS011;62348;51.412;5.436;2023-04-09T00:31:13;73.18;;;44.03;;
73980;SDS011;62348;51.412;5.436;2023-04-09T00:33:39;66.47;;;42.22;;
73980;SDS011;62348;51.412;5.436;2023-04-09T00:36:05;73.50;;;44.92;;
73980;SDS011;62348;51.412;5.436;2023-04-09T00:38:30;68.03;;;42.83;;
73980;SDS011;62348;51.412;5.436;2023-04-09T00:40:56;66.00;;;42.70;;
73980;SDS011;62348;51.412;5.436;2023-04-09T00:43:21;65.63;;;41.67;;
73980;SDS011;62348;51.412;5.436;2023-04-09T00:45:47;63.92;;;42.03;;
73980;SDS011;62348;51.412;5.436;2023-04-09T00:48:12;65.95;;;43.15;;
73980;SDS011;62348;51.412;5.436;2023-04-09T00:50:40;59.50;;;38.78;;
73980;SDS011;62348;51.412;5.436;2023-04-09T00:53:06;59.55;;;39.45;;
73980;SDS011;62348;51.412;5.436;2023-04-09T00:55:32;62.15;;;40.15;;
73980;SDS011;62348;51.412;5.436;2023-04-09T00:57:58;58.92;;;37.13;;
73980;SDS011;62348;51.412;5.436;2023-04-09T01:00:24;63.28;;;39.10;;
73980;SDS011;62348;51.412;5.436;2023-04-09T01:02:49;57.15;;;36.75;;
73980;SDS011;62348;51.412;5.436;2023-04-09T01:05:17;57.45;;;37.92;;
73980;SDS011;62348;51.412;5.436;2023-04-09T01:10:37;55.30;;;36.75;;
73980;SDS011;62348;51.412;5.436;2023-04-09T01:13:09;52.97;;;35.08;;
73980;SDS011;62348;51.412;5.436;2023-04-09T01:15:38;55.13;;;38.20;;
73980;SDS011;62348;51.412;5.436;2023-04-09T01:21:19;56.30;;;36.15;;
73980;SDS011;62348;51.412;5.436;2023-04-09T01:28:58;57.60;;;37.05;;
73980;SDS011;62348;51.412;5.436;2023-04-09T01:31:28;55.15;;;35.63;;
73980;SDS011;62348;51.412;5.436;2023-04-09T01:33:57;53.85;;;35.85;;
73980;SDS011;62348;51.412;5.436;2023-04-09T01:36:24;58.78;;;37.47;;
73980;SDS011;62348;51.412;5.436;2023-04-09T01:38:51;56.22;;;37.72;;
73980;SDS011;62348;51.412;5.436;2023-04-09T01:41:18;57.15;;;37.47;;
73980;SDS011;62348;51.412;5.436;2023-04-09T01:43:45;54.10;;;36.67;;
73980;SDS011;62348;51.412;5.436;2023-04-09T01:46:13;57.53;;;36.72;;
73980;SDS011;62348;51.412;5.436;2023-04-09T01:48:40;52.70;;;34.80;;
73980;SDS011;62348;51.412;5.436;2023-04-09T01:51:07;56.58;;;36.00;;
73980;SDS011;62348;51.412;5.436;2023-04-09T01:53:33;59.97;;;37.38;;
73980;SDS011;62348;51.412;5.436;2023-04-09T01:55:58;57.17;;;37.33;;
73980;SDS011;62348;51.412;5.436;2023-04-09T01:58:25;55.22;;;35.65;;
73980;SDS011;62348;51.412;5.436;2023-04-09T02:00:51;59.28;;;37.25;;
73980;SDS011;62348;51.412;5.436;2023-04-09T02:03:29;57.58;;;37.60;;
73980;SDS011;62348;51.412;5.436;2023-04-09T02:06:11;57.40;;;38.10;;
73980;SDS011;62348;51.412;5.436;2023-04-09T02:08:40;58.45;;;36.63;;
73980;SDS011;62348;51.412;5.436;2023-04-09T02:11:10;59.60;;;37.42;;
73980;SDS011;62348;51.412;5.436;2023-04-09T02:13:37;60.55;;;39.38;;
73980;SDS011;62348;51.412;5.436;2023-04-09T02:16:05;60.55;;;38.53;;
73980;SDS011;62348;51.412;5.436;2023-04-09T02:18:32;59.80;;;39.03;;
73980;SDS011;62348;51.412;5.436;2023-04-09T02:20:58;58.83;;;37.83;;
73980;SDS011;62348;51.412;5.436;2023-04-09T02:23:24;56.30;;;36.67;;
73980;SDS011;62348;51.412;5.436;2023-04-09T02:25:51;60.33;;;37.08;;
73980;SDS011;62348;51.412;5.436;2023-04-09T02:28:17;57.67;;;37.03;;
73980;SDS011;62348;51.412;5.436;2023-04-09T02:30:43;60.28;;;38.65;;
73980;SDS011;62348;51.412;5.436;2023-04-09T02:33:08;57.85;;;35.78;;
73980;SDS011;62348;51.412;5.436;2023-04-09T02:35:34;58.30;;;37.25;;
73980;SDS011;62348;51.412;5.436;2023-04-09T02:37:59;56.42;;;36.40;;
73980;SDS011;62348;51.412;5.436;2023-04-09T02:40:24;60.42;;;36.53;;
73980;SDS011;62348;51.412;5.436;2023-04-09T02:42:51;57.33;;;37.28;;
73980;SDS011;62348;51.412;5.436;2023-04-09T02:45:17;59.85;;;37.85;;
73980;SDS011;62348;51.412;5.436;2023-04-09T02:47:42;59.55;;;37.35;;
73980;SDS011;62348;51.412;5.436;2023-04-09T02:50:08;56.78;;;36.25;;
73980;SDS011;62348;51.412;5.436;2023-04-09T02:52:33;54.63;;;35.78;;
73980;SDS011;62348;51.412;5.436;2023-04-09T02:54:59;59.35;;;37.38;;
73980;SDS011;62348;51.412;5.436;2023-04-09T02:57:24;58.95;;;39.17;;
73980;SDS011;62348;51.412;5.436;2023-04-09T02:59:49;58.45;;;37.63;;
73980;SDS011;62348;51.412;5.436;2023-04-09T03:02:15;60.85;;;38.05;;
73980;SDS011;62348;51.412;5.436;2023-04-09T03:04:41;59.45;;;38.30;;
73980;SDS011;62348;51.412;5.436;2023-04-09T03:07:06;65.53;;;39.58;;
73980;SDS011;62348;51.412;5.436;2023-04-09T03:09:31;63.58;;;39.53;;
73980;SDS011;62348;51.412;5.436;2023-04-09T03:11:57;60.08;;;37.40;;
73980;SDS011;62348;51.412;5.436;2023-04-09T03:14:23;61.50;;;38.92;;
73980;SDS011;62348;51.412;5.436;2023-04-09T03:16:48;61.65;;;38.45;;
73980;SDS011;62348;51.412;5.436;2023-04-09T03:19:14;59.20;;;38.10;;
73980;SDS011;62348;51.412;5.436;2023-04-09T03:21:39;65.15;;;39.45;;
73980;SDS011;62348;51.412;5.436;2023-04-09T03:24:05;59.78;;;38.63;;
73980;SDS011;62348;51.412;5.436;2023-04-09T03:26:31;60.53;;;36.97;;
73980;SDS011;62348;51.412;5.436;2023-04-09T03:29:03;58.83;;;38.20;;
73980;SDS011;62348;51.412;5.436;2023-04-09T03:31:30;59.22;;;38.70;;
73980;SDS011;62348;51.412;5.436;2023-04-09T03:33:55;61.10;;;38.60;;
73980;SDS011;62348;51.412;5.436;2023-04-09T03:36:21;63.20;;;39.60;;
73980;SDS011;62348;51.412;5.436;2023-04-09T03:38:47;62.00;;;39.10;;
73980;SDS011;62348;51.412;5.436;2023-04-09T03:41:12;62.33;;;37.80;;
73980;SDS011;62348;51.412;5.436;2023-04-09T03:43:37;62.67;;;37.42;;
73980;SDS011;62348;51.412;5.436;2023-04-09T03:46:15;61.20;;;37.88;;
73980;SDS011;62348;51.412;5.436;2023-04-09T03:48:41;57.78;;;36.75;;
73980;SDS011;62348;51.412;5.436;2023-04-09T03:51:14;58.10;;;35.78;;
73980;SDS011;62348;51.412;5.436;2023-04-09T03:53:40;56.90;;;36.30;;
73980;SDS011;62348;51.412;5.436;2023-04-09T03:56:06;58.83;;;37.20;;
73980;SDS011;62348;51.412;5.436;2023-04-09T03:58:33;57.85;;;34.97;;
73980;SDS011;62348;51.412;5.436;2023-04-09T04:00:59;60.92;;;36.83;;
73980;SDS011;62348;51.412;5.436;2023-04-09T04:03:25;56.25;;;36.13;;
73980;SDS011;62348;51.412;5.436;2023-04-09T04:05:50;56.00;;;35.17;;
73980;SDS011;62348;51.412;5.436;2023-04-09T04:08:15;54.42;;;35.72;;
73980;SDS011;62348;51.412;5.436;2023-04-09T04:10:41;56.75;;;36.45;;
73980;SDS011;62348;51.412;5.436;2023-04-09T04:13:06;59.55;;;36.13;;
73980;SDS011;62348;51.412;5.436;2023-04-09T04:15:32;55.00;;;34.38;;
73980;SDS011;62348;51.412;5.436;2023-04-09T04:17:58;57.80;;;36.15;;
73980;SDS011;62348;51.412;5.436;2023-04-09T04:20:23;58.47;;;35.35;;
73980;SDS011;62348;51.412;5.436;2023-04-09T04:22:49;57.53;;;34.95;;
73980;SDS011;62348;51.412;5.436;2023-04-09T04:25:14;58.20;;;35.33;;
73980;SDS011;62348;51.412;5.436;2023-04-09T04:27:40;53.95;;;35.55;;
73980;SDS011;62348;51.412;5.436;2023-04-09T04:30:06;57.03;;;34.47;;
73980;SDS011;62348;51.412;5.436;2023-04-09T04:32:32;57.75;;;36.15;;
73980;SDS011;62348;51.412;5.436;2023-04-09T04:34:58;57.70;;;36.67;;
73980;SDS011;62348;51.412;5.436;2023-04-09T04:37:23;54.92;;;33.65;;
73980;SDS011;62348;51.412;5.436;2023-04-09T04:39:49;53.75;;;35.38;;
73980;SDS011;62348;51.412;5.436;2023-04-09T04:42:15;54.35;;;33.28;;
73980;SDS011;62348;51.412;5.436;2023-04-09T04:44:41;54.85;;;33.45;;
73980;SDS011;62348;51.412;5.436;2023-04-09T04:47:06;54.22;;;33.78;;
73980;SDS011;62348;51.412;5.436;2023-04-09T04:49:32;52.30;;;33.17;;
73980;SDS011;62348;51.412;5.436;2023-04-09T04:51:57;57.15;;;34.42;;
73980;SDS011;62348;51.412;5.436;2023-04-09T04:54:22;55.25;;;34.45;;
73980;SDS011;62348;51.412;5.436;2023-04-09T04:56:48;53.15;;;33.58;;
73980;SDS011;62348;51.412;5.436;2023-04-09T04:59:13;56.88;;;34.03;;
73980;SDS011;62348;51.412;5.436;2023-04-09T05:01:39;54.22;;;33.33;;
73980;SDS011;62348;51.412;5.436;2023-04-09T05:04:04;53.35;;;32.42;;
73980;SDS011;62348;51.412;5.436;2023-04-09T05:06:30;50.88;;;31.17;;
73980;SDS011;62348;51.412;5.436;2023-04-09T05:08:55;51.10;;;31.20;;
73980;SDS011;62348;51.412;5.436;2023-04-09T05:11:23;53.00;;;31.33;;
73980;SDS011;62348;51.412;5.436;2023-04-09T05:13:48;49.75;;;31.00;;
73980;SDS011;62348;51.412;5.436;2023-04-09T05:16:18;54.00;;;31.55;;
73980;SDS011;62348;51.412;5.436;2023-04-09T05:18:44;51.95;;;32.08;;
73980;SDS011;62348;51.412;5.436;2023-04-09T05:21:09;52.58;;;31.25;;
73980;SDS011;62348;51.412;5.436;2023-04-09T05:23:35;57.33;;;33.92;;
73980;SDS011;62348;51.412;5.436;2023-04-09T05:26:00;51.83;;;32.10;;
73980;SDS011;62348;51.412;5.436;2023-04-09T05:28:29;53.58;;;30.92;;
73980;SDS011;62348;51.412;5.436;2023-04-09T05:30:54;51.00;;;31.23;;
73980;SDS011;62348;51.412;5.436;2023-04-09T05:33:20;48.08;;;29.92;;
73980;SDS011;62348;51.412;5.436;2023-04-09T05:35:45;52.15;;;31.65;;
73980;SDS011;62348;51.412;5.436;2023-04-09T05:38:11;51.67;;;30.95;;
73980;SDS011;62348;51.412;5.436;2023-04-09T05:40:37;46.33;;;29.90;;
73980;SDS011;62348;51.412;5.436;2023-04-09T05:43:03;50.28;;;30.52;;
73980;SDS011;62348;51.412;5.436;2023-04-09T05:45:29;55.20;;;32.97;;
73980;SDS011;62348;51.412;5.436;2023-04-09T05:47:54;53.85;;;32.10;;
73980;SDS011;62348;51.412;5.436;2023-04-09T05:50:20;52.38;;;31.48;;
73980;SDS011;62348;51.412;5.436;2023-04-09T05:52:46;53.72;;;31.65;;
73980;SDS011;62348;51.412;5.436;2023-04-09T05:55:11;52.08;;;33.15;;
73980;SDS011;62348;51.412;5.436;2023-04-09T05:57:36;52.25;;;31.85;;
73980;SDS011;62348;51.412;5.436;2023-04-09T06:00:02;52.83;;;32.95;;
73980;SDS011;62348;51.412;5.436;2023-04-09T06:02:28;48.50;;;30.60;;
73980;SDS011;62348;51.412;5.436;2023-04-09T06:04:53;51.75;;;31.65;;
73980;SDS011;62348;51.412;5.436;2023-04-09T06:07:19;53.55;;;32.30;;
73980;SDS011;62348;51.412;5.436;2023-04-09T06:09:45;54.40;;;31.10;;
73980;SDS011;62348;51.412;5.436;2023-04-09T06:12:11;49.47;;;31.27;;
73980;SDS011;62348;51.412;5.436;2023-04-09T06:14:37;55.08;;;32.10;;
73980;SDS011;62348;51.412;5.436;2023-04-09T06:17:02;47.92;;;29.70;;
73980;SDS011;62348;51.412;5.436;2023-04-09T06:19:28;54.60;;;31.23;;
73980;SDS011;62348;51.412;5.436;2023-04-09T06:21:53;50.20;;;30.65;;
73980;SDS011;62348;51.412;5.436;2023-04-09T06:24:18;50.97;;;30.38;;
73980;SDS011;62348;51.412;5.436;2023-04-09T06:26:44;49.38;;;31.08;;
73980;SDS011;62348;51.412;5.436;2023-04-09T06:29:10;49.67;;;30.02;;
73980;SDS011;62348;51.412;5.436;2023-04-09T06:31:35;53.65;;;32.17;;
73980;SDS011;62348;51.412;5.436;2023-04-09T06:34:00;50.70;;;30.60;;
73980;SDS011;62348;51.412;5.436;2023-04-09T06:36:26;52.92;;;32.65;;
73980;SDS011;62348;51.412;5.436;2023-04-09T06:38:52;50.22;;;31.10;;
73980;SDS011;62348;51.412;5.436;2023-04-09T06:41:21;46.08;;;27.98;;
73980;SDS011;62348;51.412;5.436;2023-04-09T06:43:47;51.80;;;31.92;;
73980;SDS011;62348;51.412;5.436;2023-04-09T06:46:13;48.63;;;31.75;;
73980;SDS011;62348;51.412;5.436;2023-04-09T06:48:41;47.42;;;31.13;;
73980;SDS011;62348;51.412;5.436;2023-04-09T06:51:08;45.85;;;29.58;;
73980;SDS011;62348;51.412;5.436;2023-04-09T06:53:35;45.78;;;30.20;;
73980;SDS011;62348;51.412;5.436;2023-04-09T06:56:01;45.60;;;29.17;;
73980;SDS011;62348;51.412;5.436;2023-04-09T06:58:26;44.25;;;29.17;;
73980;SDS011;62348;51.412;5.436;2023-04-09T07:00:52;44.35;;;29.05;;
73980;SDS011;62348;51.412;5.436;2023-04-09T07:03:17;45.75;;;29.83;;
73980;SDS011;62348;51.412;5.436;2023-04-09T07:05:43;45.53;;;29.55;;
73980;SDS011;62348;51.412;5.436;2023-04-09T07:08:08;45.00;;;30.40;;
73980;SDS011;62348;51.412;5.436;2023-04-09T07:10:34;42.00;;;28.98;;
73980;SDS011;62348;51.412;5.436;2023-04-09T07:13:00;43.53;;;29.40;;
73980;SDS011;62348;51.412;5.436;2023-04-09T07:15:25;48.80;;;31.45;;
73980;SDS011;62348;51.412;5.436;2023-04-09T07:17:51;46.17;;;31.15;;
73980;SDS011;62348;51.412;5.436;2023-04-09T07:20:16;43.70;;;29.58;;
73980;SDS011;62348;51.412;5.436;2023-04-09T07:22:41;46.15;;;30.58;;
73980;SDS011;62348;51.412;5.436;2023-04-09T07:25:07;46.60;;;30.45;;
73980;SDS011;62348;51.412;5.436;2023-04-09T07:27:32;45.05;;;32.08;;
73980;SDS011;62348;51.412;5.436;2023-04-09T07:29:59;46.75;;;31.75;;
73980;SDS011;62348;51.412;5.436;2023-04-09T07:32:25;46.63;;;32.28;;
73980;SDS011;62348;51.412;5.436;2023-04-09T07:34:52;42.65;;;30.15;;
73980;SDS011;62348;51.412;5.436;2023-04-09T07:37:18;50.38;;;32.33;;
73980;SDS011;62348;51.412;5.436;2023-04-09T07:39:44;46.85;;;30.77;;
73980;SDS011;62348;51.412;5.436;2023-04-09T07:42:10;43.25;;;30.23;;
73980;SDS011;62348;51.412;5.436;2023-04-09T07:44:36;45.97;;;31.85;;
73980;SDS011;62348;51.412;5.436;2023-04-09T07:47:02;44.40;;;31.42;;
73980;SDS011;62348;51.412;5.436;2023-04-09T07:49:28;44.08;;;31.80;;
73980;SDS011;62348;51.412;5.436;2023-04-09T07:51:53;45.95;;;33.00;;
73980;SDS011;62348;51.412;5.436;2023-04-09T07:54:19;46.90;;;31.60;;
73980;SDS011;62348;51.412;5.436;2023-04-09T07:56:45;45.78;;;31.90;;
73980;SDS011;62348;51.412;5.436;2023-04-09T07:59:11;44.45;;;31.05;;
73980;SDS011;62348;51.412;5.436;2023-04-09T08:01:36;47.88;;;32.97;;
73980;SDS011;62348;51.412;5.436;2023-04-09T08:04:02;46.28;;;32.38;;
73980;SDS011;62348;51.412;5.436;2023-04-09T08:06:27;47.25;;;32.20;;
73980;SDS011;62348;51.412;5.436;2023-04-09T08:08:53;46.47;;;31.63;;
73980;SDS011;62348;51.412;5.436;2023-04-09T08:11:18;44.03;;;30.83;;
73980;SDS011;62348;51.412;5.436;2023-04-09T08:13:49;48.30;;;32.50;;
73980;SDS011;62348;51.412;5.436;2023-04-09T08:16:16;48.17;;;33.92;;
73980;SDS011;62348;51.412;5.436;2023-04-09T08:18:41;44.78;;;31.70;;
73980;SDS011;62348;51.412;5.436;2023-04-09T08:21:07;49.88;;;34.00;;
73980;SDS011;62348;51.412;5.436;2023-04-09T08:23:32;46.17;;;32.88;;
73980;SDS011;62348;51.412;5.436;2023-04-09T08:25:57;46.50;;;32.70;;
73980;SDS011;62348;51.412;5.436;2023-04-09T08:28:23;46.33;;;32.63;;
73980;SDS011;62348;51.412;5.436;2023-04-09T08:30:48;52.17;;;33.90;;
73980;SDS011;62348;51.412;5.436;2023-04-09T08:33:14;48.67;;;34.80;;
73980;SDS011;62348;51.412;5.436;2023-04-09T08:35:39;44.90;;;34.13;;
73980;SDS011;62348;51.412;5.436;2023-04-09T08:38:05;48.63;;;34.00;;
73980;SDS011;62348;51.412;5.436;2023-04-09T08:40:34;48.00;;;34.70;;
73980;SDS011;62348;51.412;5.436;2023-04-09T08:43:00;48.83;;;34.97;;
73980;SDS011;62348;51.412;5.436;2023-04-09T08:45:29;46.65;;;34.35;;
73980;SDS011;62348;51.412;5.436;2023-04-09T08:47:55;46.60;;;33.35;;
73980;SDS011;62348;51.412;5.436;2023-04-09T08:50:23;48.35;;;34.40;;
73980;SDS011;62348;51.412;5.436;2023-04-09T08:52:51;52.83;;;34.42;;
73980;SDS011;62348;51.412;5.436;2023-04-09T08:55:17;44.53;;;33.22;;
73980;SDS011;62348;51.412;5.436;2023-04-09T08:57:42;45.67;;;32.67;;
73980;SDS011;62348;51.412;5.436;2023-04-09T09:00:08;46.42;;;32.78;;
73980;SDS011;62348;51.412;5.436;2023-04-09T09:02:34;46.10;;;34.28;;
73980;SDS011;62348;51.412;5.436;2023-04-09T09:05:00;51.10;;;34.80;;
73980;SDS011;62348;51.412;5.436;2023-04-09T09:07:26;46.85;;;35.10;;
73980;SDS011;62348;51.412;5.436;2023-04-09T09:09:56;47.03;;;33.88;;
73980;SDS011;62348;51.412;5.436;2023-04-09T09:15:05;48.28;;;34.95;;
73980;SDS011;62348;51.412;5.436;2023-04-09T09:17:55;44.10;;;34.10;;
73980;SDS011;62348;51.412;5.436;2023-04-09T09:20:22;46.58;;;32.92;;
73980;SDS011;62348;51.412;5.436;2023-04-09T09:22:49;43.42;;;32.30;;
73980;SDS011;62348;51.412;5.436;2023-04-09T09:25:15;45.60;;;33.22;;
73980;SDS011;62348;51.412;5.436;2023-04-09T09:27:41;44.42;;;31.60;;
73980;SDS011;62348;51.412;5.436;2023-04-09T09:30:08;45.92;;;33.20;;
73980;SDS011;62348;51.412;5.436;2023-04-09T09:32:35;46.90;;;32.95;;
73980;SDS011;62348;51.412;5.436;2023-04-09T09:35:04;45.35;;;32.60;;
73980;SDS011;62348;51.412;5.436;2023-04-09T09:37:31;42.75;;;32.20;;
73980;SDS011;62348;51.412;5.436;2023-04-09T09:39:57;43.47;;;32.55;;
73980;SDS011;62348;51.412;5.436;2023-04-09T09:42:23;42.58;;;30.83;;
73980;SDS011;62348;51.412;5.436;2023-04-09T09:44:50;43.78;;;30.92;;
73980;SDS011;62348;51.412;5.436;2023-04-09T09:47:17;41.22;;;31.05;;
73980;SDS011;62348;51.412;5.436;2023-04-09T09:49:44;42.40;;;31.17;;
73980;SDS011;62348;51.412;5.436;2023-04-09T09:52:09;41.90;;;31.30;;
73980;SDS011;62348;51.412;5.436;2023-04-09T09:54:39;41.70;;;31.35;;
73980;SDS011;62348;51.412;5.436;2023-04-09T09:57:09;40.10;;;29.63;;
73980;SDS011;62348;51.412;5.436;2023-04-09T09:59:39;41.33;;;30.40;;
73980;SDS011;62348;51.412;5.436;2023-04-09T10:02:13;41.67;;;30.63;;
73980;SDS011;62348;51.412;5.436;2023-04-09T10:04:43;39.28;;;29.45;;
73980;SDS011;62348;51.412;5.436;2023-04-09T10:07:09;38.80;;;29.25;;
73980;SDS011;62348;51.412;5.436;2023-04-09T10:09:36;40.58;;;29.52;;
73980;SDS011;62348;51.412;5.436;2023-04-09T10:12:05;41.00;;;29.90;;
73980;SDS011;62348;51.412;5.436;2023-04-09T10:14:31;38.35;;;29.42;;
73980;SDS011;62348;51.412;5.436;2023-04-09T10:16:59;41.28;;;29.58;;
73980;SDS011;62348;51.412;5.436;2023-04-09T10:19:26;39.95;;;29.65;;
73980;SDS011;62348;51.412;5.436;2023-04-09T10:22:04;39.90;;;29.65;;
73980;SDS011;62348;51.412;5.436;2023-04-09T10:24:34;38.38;;;26.58;;
73980;SDS011;62348;51.412;5.436;2023-04-09T10:27:10;30.23;;;23.50;;
73980;SDS011;62348;51.412;5.436;2023-04-09T10:29:41;29.52;;;23.20;;
73980;SDS011;62348;51.412;5.436;2023-04-09T10:32:09;30.30;;;22.88;;
73980;SDS011;62348;51.412;5.436;2023-04-09T10:34:40;31.13;;;21.98;;
73980;SDS011;62348;51.412;5.436;2023-04-09T10:37:13;35.72;;;21.33;;
73980;SDS011;62348;51.412;5.436;2023-04-09T10:39:44;28.23;;;21.08;;
73980;SDS011;62348;51.412;5.436;2023-04-09T10:42:12;29.65;;;21.75;;
73980;SDS011;62348;51.412;5.436;2023-04-09T10:44:40;29.30;;;22.30;;
73980;SDS011;62348;51.412;5.436;2023-04-09T10:47:09;29.63;;;22.42;;
73980;SDS011;62348;51.412;5.436;2023-04-09T10:49:37;30.88;;;22.73;;
73980;SDS011;62348;51.412;5.436;2023-04-09T10:52:04;31.20;;;23.70;;
73980;SDS011;62348;51.412;5.436;2023-04-09T10:54:38;33.05;;;25.40;;
73980;SDS011;62348;51.412;5.436;2023-04-09T10:57:19;32.70;;;24.75;;
73980;SDS011;62348;51.412;5.436;2023-04-09T11:07:30;27.85;;;20.30;;
73980;SDS011;62348;51.412;5.436;2023-04-09T11:09:59;27.83;;;21.17;;
73980;SDS011;62348;51.412;5.436;2023-04-09T11:12:24;27.60;;;22.48;;
73980;SDS011;62348;51.412;5.436;2023-04-09T11:14:50;27.90;;;21.75;;
73980;SDS011;62348;51.412;5.436;2023-04-09T11:17:17;25.88;;;20.77;;
73980;SDS011;62348;51.412;5.436;2023-04-09T11:19:42;26.63;;;21.25;;
73980;SDS011;62348;51.412;5.436;2023-04-09T11:22:08;29.05;;;21.48;;
73980;SDS011;62348;51.412;5.436;2023-04-09T11:24:44;27.20;;;19.75;;
73980;SDS011;62348;51.412;5.436;2023-04-09T11:27:11;28.75;;;22.05;;
73980;SDS011;62348;51.412;5.436;2023-04-09T11:29:37;26.50;;;20.23;;
73980;SDS011;62348;51.412;5.436;2023-04-09T11:32:03;26.98;;;20.60;;
73980;SDS011;62348;51.412;5.436;2023-04-09T11:34:29;21.27;;;17.58;;
73980;SDS011;62348;51.412;5.436;2023-04-09T11:36:55;23.52;;;17.70;;
73980;SDS011;62348;51.412;5.436;2023-04-09T11:39:23;21.10;;;16.20;;
73980;SDS011;62348;51.412;5.436;2023-04-09T11:41:48;19.05;;;15.45;;
73980;SDS011;62348;51.412;5.436;2023-04-09T11:44:14;20.77;;;16.63;;
73980;SDS011;62348;51.412;5.436;2023-04-09T11:46:39;20.40;;;15.38;;
73980;SDS011;62348;51.412;5.436;2023-04-09T11:49:05;15.52;;;12.93;;
73980;SDS011;62348;51.412;5.436;2023-04-09T11:51:31;15.68;;;11.73;;
73980;SDS011;62348;51.412;5.436;2023-04-09T11:54:00;19.85;;;13.82;;
73980;SDS011;62348;51.412;5.436;2023-04-09T11:56:28;15.52;;;12.43;;
73980;SDS011;62348;51.412;5.436;2023-04-09T11:58:55;17.70;;;12.90;;
73980;SDS011;62348;51.412;5.436;2023-04-09T12:01:20;16.95;;;12.80;;
73980;SDS011;62348;51.412;5.436;2023-04-09T12:03:51;17.67;;;13.65;;
73980;SDS011;62348;51.412;5.436;2023-04-09T12:06:17;20.38;;;15.05;;
73980;SDS011;62348;51.412;5.436;2023-04-09T12:08:45;19.75;;;14.27;;
73980;SDS011;62348;51.412;5.436;2023-04-09T12:11:15;17.48;;;14.25;;
73980;SDS011;62348;51.412;5.436;2023-04-09T12:13:40;21.05;;;15.05;;
73980;SDS011;62348;51.412;5.436;2023-04-09T12:16:11;19.40;;;14.63;;
73980;SDS011;62348;51.412;5.436;2023-04-09T12:18:37;18.88;;;14.57;;
73980;SDS011;62348;51.412;5.436;2023-04-09T12:21:03;19.83;;;15.85;;
73980;SDS011;62348;51.412;5.436;2023-04-09T12:23:30;18.90;;;14.82;;
73980;SDS011;62348;51.412;5.436;2023-04-09T12:25:55;17.52;;;14.15;;
73980;SDS011;62348;51.412;5.436;2023-04-09T12:28:24;19.48;;;14.70;;
73980;SDS011;62348;51.412;5.436;2023-04-09T12:30:50;18.10;;;14.30;;
73980;SDS011;62348;51.412;5.436;2023-04-09T12:33:15;17.65;;;14.43;;
73980;SDS011;62348;51.412;5.436;2023-04-09T12:35:41;20.63;;;16.08;;
73980;SDS011;62348;51.412;5.436;2023-04-09T12:38:06;17.52;;;14.57;;
73980;SDS011;62348;51.412;5.436;2023-04-09T12:40:32;18.48;;;14.20;;
73980;SDS011;62348;51.412;5.436;2023-04-09T12:42:59;20.10;;;14.00;;
73980;SDS011;62348;51.412;5.436;2023-04-09T12:45:25;15.60;;;13.20;;
73980;SDS011;62348;51.412;5.436;2023-04-09T12:47:51;16.15;;;12.88;;
73980;SDS011;62348;51.412;5.436;2023-04-09T12:50:17;19.67;;;13.60;;
73980;SDS011;62348;51.412;5.436;2023-04-09T12:52:42;15.13;;;12.07;;
73980;SDS011;62348;51.412;5.436;2023-04-09T12:55:09;15.50;;;12.10;;
73980;SDS011;62348;51.412;5.436;2023-04-09T12:57:36;14.73;;;12.60;;
73980;SDS011;62348;51.412;5.436;2023-04-09T13:00:02;17.60;;;13.18;;
73980;SDS011;62348;51.412;5.436;2023-04-09T13:02:31;16.85;;;13.25;;
73980;SDS011;62348;51.412;5.436;2023-04-09T13:04:58;14.57;;;11.80;;
73980;SDS011;62348;51.412;5.436;2023-04-09T13:07:23;13.68;;;11.93;;
73980;SDS011;62348;51.412;5.436;2023-04-09T13:09:50;16.20;;;12.05;;
73980;SDS011;62348;51.412;5.436;2023-04-09T13:12:16;14.43;;;12.07;;
73980;SDS011;62348;51.412;5.436;2023-04-09T13:14:42;14.63;;;12.02;;
73980;SDS011;62348;51.412;5.436;2023-04-09T13:17:10;14.50;;;11.73;;
73980;SDS011;62348;51.412;5.436;2023-04-09T13:19:35;15.75;;;12.80;;
73980;SDS011;62348;51.412;5.436;2023-04-09T13:22:01;14.35;;;11.63;;
73980;SDS011;62348;51.412;5.436;2023-04-09T13:24:27;15.27;;;11.73;;
73980;SDS011;62348;51.412;5.436;2023-04-09T13:26:52;15.82;;;11.50;;
73980;SDS011;62348;51.412;5.436;2023-04-09T13:29:18;15.88;;;11.88;;
73980;SDS011;62348;51.412;5.436;2023-04-09T13:31:43;15.70;;;11.88;;
73980;SDS011;62348;51.412;5.436;2023-04-09T13:34:09;14.20;;;11.20;;
73980;SDS011;62348;51.412;5.436;2023-04-09T13:36:34;16.67;;;11.45;;
73980;SDS011;62348;51.412;5.436;2023-04-09T13:39:00;14.90;;;11.40;;
73980;SDS011;62348;51.412;5.436;2023-04-09T13:41:31;14.95;;;10.80;;
73980;SDS011;62348;51.412;5.436;2023-04-09T13:43:58;14.43;;;11.60;;
73980;SDS011;62348;51.412;5.436;2023-04-09T13:46:24;14.85;;;11.45;;
73980;SDS011;62348;51.412;5.436;2023-04-09T13:48:49;15.10;;;11.27;;
73980;SDS011;62348;51.412;5.436;2023-04-09T13:51:15;15.23;;;10.93;;
73980;SDS011;62348;51.412;5.436;2023-04-09T13:53:40;13.95;;;10.90;;
73980;SDS011;62348;51.412;5.436;2023-04-09T13:56:06;17.48;;;12.55;;
73980;SDS011;62348;51.412;5.436;2023-04-09T13:58:31;14.27;;;12.30;;
73980;SDS011;62348;51.412;5.436;2023-04-09T14:00:57;14.40;;;12.07;;
73980;SDS011;62348;51.412;5.436;2023-04-09T14:03:22;13.52;;;10.93;;
73980;SDS011;62348;51.412;5.436;2023-04-09T14:05:47;12.77;;;10.02;;
73980;SDS011;62348;51.412;5.436;2023-04-09T14:08:14;12.57;;;10.40;;
73980;SDS011;62348;51.412;5.436;2023-04-09T14:10:40;13.55;;;10.23;;
73980;SDS011;62348;51.412;5.436;2023-04-09T14:13:06;14.25;;;10.40;;
73980;SDS011;62348;51.412;5.436;2023-04-09T14:15:34;14.38;;;10.48;;
73980;SDS011;62348;51.412;5.436;2023-04-09T14:18:00;13.25;;;10.02;;
73980;SDS011;62348;51.412;5.436;2023-04-09T14:20:25;14.73;;;10.60;;
73980;SDS011;62348;51.412;5.436;2023-04-09T14:22:50;14.07;;;11.05;;
73980;SDS011;62348;51.412;5.436;2023-04-09T14:25:16;12.88;;;9.65;;
73980;SDS011;62348;51.412;5.436;2023-04-09T14:27:41;13.65;;;10.05;;
73980;SDS011;62348;51.412;5.436;2023-04-09T14:30:08;12.23;;;9.93;;
73980;SDS011;62348;51.412;5.436;2023-04-09T14:32:34;12.27;;;9.90;;
73980;SDS011;62348;51.412;5.436;2023-04-09T14:34:59;13.38;;;10.40;;
73980;SDS011;62348;51.412;5.436;2023-04-09T14:37:25;13.57;;;11.20;;
73980;SDS011;62348;51.412;5.436;2023-04-09T14:39:51;12.65;;;9.70;;